Panorama, Canada
Current Conditions -  °F | °C
As of 8:00 PM on Saturday 25 Oct 2014 (Local Time) from CYXC Reporting Station
Overcast Overcast  
Wind Chill: 42°   Ceiling: 6000
Heat Index: 45°   Visibility: 25mi
Dew Point: 39°   Wind: 5mph
Humidity: 81%   Direction: 280°W
Pressure: 29.57"   Gusts: NA
Location:  50.46°N, 116.24°W
Report Text: CYXC 260200Z 28004KT 250V320 25SM BKN060 OVC090 07/04 A2957 RMK SC5AC3 SLP028 DENSITY ALT 3200FT
Loading
Personal Weather Stations






























Interactive Weather Map
Tropical Storm Tracking
New forecast layout! Learn more

10-Day Weather Forecast

Advertisements
Track Severe Weather on mobile